sensor_id;sensor_type;location;lat;lon;timestamp;temperature;humidity
10386;DHT22;34307;51.332;12.334;2023-07-13T00:02:10;21.10;1.00
10386;DHT22;34307;51.332;12.334;2023-07-13T00:04:38;21.00;1.00
10386;DHT22;34307;51.332;12.334;2023-07-13T00:07:08;21.00;1.00
10386;DHT22;34307;51.332;12.334;2023-07-13T00:09:38;21.00;1.00
10386;DHT22;34307;51.332;12.334;2023-07-13T00:12:22;21.00;1.00
10386;DHT22;34307;51.332;12.334;2023-07-13T00:14:50;21.10;1.00
10386;DHT22;34307;51.332;12.334;2023-07-13T00:17:18;21.20;1.00
10386;DHT22;34307;51.332;12.334;2023-07-13T00:19:47;21.30;1.00
10386;DHT22;34307;51.332;12.334;2023-07-13T00:22:20;21.30;1.00
10386;DHT22;34307;51.332;12.334;2023-07-13T00:24:48;21.30;1.00
10386;DHT22;34307;51.332;12.334;2023-07-13T00:27:18;21.40;1.00
10386;DHT22;34307;51.332;12.334;2023-07-13T00:29:49;21.40;1.00
10386;DHT22;34307;51.332;12.334;2023-07-13T00:32:20;21.40;1.00
10386;DHT22;34307;51.332;12.334;2023-07-13T00:34:49;21.30;1.00
10386;DHT22;34307;51.332;12.334;2023-07-13T00:37:19;21.30;1.00
10386;DHT22;34307;51.332;12.334;2023-07-13T00:40:17;21.20;1.00
10386;DHT22;34307;51.332;12.334;2023-07-13T00:43:16;21.20;1.00
10386;DHT22;34307;51.332;12.334;2023-07-13T00:46:18;21.20;1.00
10386;DHT22;34307;51.332;12.334;2023-07-13T00:48:59;21.20;1.00
10386;DHT22;34307;51.332;12.334;2023-07-13T00:51:32;21.20;1.00
10386;DHT22;34307;51.332;12.334;2023-07-13T00:54:05;21.20;1.00
10386;DHT22;34307;51.332;12.334;2023-07-13T00:56:38;21.10;1.00
10386;DHT22;34307;51.332;12.334;2023-07-13T00:59:08;21.10;1.00
10386;DHT22;34307;51.332;12.334;2023-07-13T01:01:39;21.00;1.00
10386;DHT22;34307;51.332;12.334;2023-07-13T01:04:09;21.00;1.00
10386;DHT22;34307;51.332;12.334;2023-07-13T01:06:39;20.80;1.00
10386;DHT22;34307;51.332;12.334;2023-07-13T01:09:10;20.70;1.00
10386;DHT22;34307;51.332;12.334;2023-07-13T01:11:39;20.60;1.00
10386;DHT22;34307;51.332;12.334;2023-07-13T01:14:09;20.60;1.00
10386;DHT22;34307;51.332;12.334;2023-07-13T01:16:40;20.60;1.00
10386;DHT22;34307;51.332;12.334;2023-07-13T01:19:22;20.50;1.00
10386;DHT22;34307;51.332;12.334;2023-07-13T01:21:59;20.50;1.00
10386;DHT22;34307;51.332;12.334;2023-07-13T01:24:28;20.40;1.00
10386;DHT22;34307;51.332;12.334;2023-07-13T01:26:57;20.40;1.00
10386;DHT22;34307;51.332;12.334;2023-07-13T01:29:25;20.20;1.00
10386;DHT22;34307;51.332;12.334;2023-07-13T01:31:53;20.10;3.30
10386;DHT22;34307;51.332;12.334;2023-07-13T01:34:24;20.10;7.10
10386;DHT22;34307;51.332;12.334;2023-07-13T01:36:53;20.10;10.00
10386;DHT22;34307;51.332;12.334;2023-07-13T01:39:25;20.00;12.80
10386;DHT22;34307;51.332;12.334;2023-07-13T01:41:53;19.90;14.70
10386;DHT22;34307;51.332;12.334;2023-07-13T01:44:24;19.90;16.40
10386;DHT22;34307;51.332;12.334;2023-07-13T01:46:53;19.90;18.00
10386;DHT22;34307;51.332;12.334;2023-07-13T01:49:20;19.80;19.30
10386;DHT22;34307;51.332;12.334;2023-07-13T01:51:51;19.70;20.50
10386;DHT22;34307;51.332;12.334;2023-07-13T01:54:19;19.70;21.90
10386;DHT22;34307;51.332;12.334;2023-07-13T01:56:51;19.60;23.10
10386;DHT22;34307;51.332;12.334;2023-07-13T01:59:19;19.50;24.60
10386;DHT22;34307;51.332;12.334;2023-07-13T02:01:47;19.50;25.70
10386;DHT22;34307;51.332;12.334;2023-07-13T02:04:16;19.50;26.40
10386;DHT22;34307;51.332;12.334;2023-07-13T02:06:45;19.60;27.60
10386;DHT22;34307;51.332;12.334;2023-07-13T02:09:15;19.50;27.40
10386;DHT22;34307;51.332;12.334;2023-07-13T02:11:44;19.40;28.80
10386;DHT22;34307;51.332;12.334;2023-07-13T02:14:13;19.20;30.00
10386;DHT22;34307;51.332;12.334;2023-07-13T02:16:42;19.30;31.00
10386;DHT22;34307;51.332;12.334;2023-07-13T02:19:10;19.20;32.00
10386;DHT22;34307;51.332;12.334;2023-07-13T02:21:39;19.20;33.40
10386;DHT22;34307;51.332;12.334;2023-07-13T02:24:07;19.20;34.30
10386;DHT22;34307;51.332;12.334;2023-07-13T02:26:36;19.10;35.30
10386;DHT22;34307;51.332;12.334;2023-07-13T02:29:04;19.10;38.20
10386;DHT22;34307;51.332;12.334;2023-07-13T02:31:33;19.10;40.00
10386;DHT22;34307;51.332;12.334;2023-07-13T02:34:03;19.00;41.90
10386;DHT22;34307;51.332;12.334;2023-07-13T02:36:33;18.90;43.40
10386;DHT22;34307;51.332;12.334;2023-07-13T02:39:05;18.90;44.70
10386;DHT22;34307;51.332;12.334;2023-07-13T02:41:33;18.90;45.20
10386;DHT22;34307;51.332;12.334;2023-07-13T02:44:02;18.80;45.70
10386;DHT22;34307;51.332;12.334;2023-07-13T02:46:30;18.60;47.10
10386;DHT22;34307;51.332;12.334;2023-07-13T02:49:03;18.60;48.40
10386;DHT22;34307;51.332;12.334;2023-07-13T02:51:32;18.50;49.10
10386;DHT22;34307;51.332;12.334;2023-07-13T02:54:01;18.50;50.10
10386;DHT22;34307;51.332;12.334;2023-07-13T02:56:32;18.40;50.70
10386;DHT22;34307;51.332;12.334;2023-07-13T02:59:00;18.30;51.50
10386;DHT22;34307;51.332;12.334;2023-07-13T03:01:29;18.30;52.30
10386;DHT22;34307;51.332;12.334;2023-07-13T03:03:59;18.20;53.20
10386;DHT22;34307;51.332;12.334;2023-07-13T03:06:30;18.20;54.10
10386;DHT22;34307;51.332;12.334;2023-07-13T03:08:58;18.20;55.10
10386;DHT22;34307;51.332;12.334;2023-07-13T03:11:27;18.20;55.60
10386;DHT22;34307;51.332;12.334;2023-07-13T03:13:57;18.10;56.40
10386;DHT22;34307;51.332;12.334;2023-07-13T03:16:25;18.00;57.40
10386;DHT22;34307;51.332;12.334;2023-07-13T03:18:53;18.00;58.70
10386;DHT22;34307;51.332;12.334;2023-07-13T03:21:21;17.90;60.00
10386;DHT22;34307;51.332;12.334;2023-07-13T03:23:50;17.90;60.50
10386;DHT22;34307;51.332;12.334;2023-07-13T03:26:19;17.80;62.20
10386;DHT22;34307;51.332;12.334;2023-07-13T03:28:48;17.80;62.90
10386;DHT22;34307;51.332;12.334;2023-07-13T03:31:18;17.80;63.50
10386;DHT22;34307;51.332;12.334;2023-07-13T03:33:48;17.70;64.10
10386;DHT22;34307;51.332;12.334;2023-07-13T03:36:18;17.70;64.70
10386;DHT22;34307;51.332;12.334;2023-07-13T03:38:50;17.80;64.80
10386;DHT22;34307;51.332;12.334;2023-07-13T03:41:19;17.70;65.70
10386;DHT22;34307;51.332;12.334;2023-07-13T03:43:49;17.60;66.90
10386;DHT22;34307;51.332;12.334;2023-07-13T03:46:18;17.50;68.40
10386;DHT22;34307;51.332;12.334;2023-07-13T03:48:48;17.50;69.60
10386;DHT22;34307;51.332;12.334;2023-07-13T03:51:17;17.50;70.80
10386;DHT22;34307;51.332;12.334;2023-07-13T03:53:46;17.50;72.20
10386;DHT22;34307;51.332;12.334;2023-07-13T03:56:17;17.50;73.30
10386;DHT22;34307;51.332;12.334;2023-07-13T03:58:47;17.40;74.50
10386;DHT22;34307;51.332;12.334;2023-07-13T04:01:18;17.40;75.60
10386;DHT22;34307;51.332;12.334;2023-07-13T04:03:47;17.40;76.00
10386;DHT22;34307;51.332;12.334;2023-07-13T04:06:18;17.40;77.10
10386;DHT22;34307;51.332;12.334;2023-07-13T04:08:49;17.40;78.10
10386;DHT22;34307;51.332;12.334;2023-07-13T04:11:20;17.50;77.90
10386;DHT22;34307;51.332;12.334;2023-07-13T04:13:49;17.40;78.00
10386;DHT22;34307;51.332;12.334;2023-07-13T04:16:19;17.40;78.20
10386;DHT22;34307;51.332;12.334;2023-07-13T04:18:48;17.50;78.30
10386;DHT22;34307;51.332;12.334;2023-07-13T04:21:16;17.50;78.50
10386;DHT22;34307;51.332;12.334;2023-07-13T04:23:44;17.50;78.80
10386;DHT22;34307;51.332;12.334;2023-07-13T04:26:13;17.50;79.60
10386;DHT22;34307;51.332;12.334;2023-07-13T04:28:46;17.60;79.00
10386;DHT22;34307;51.332;12.334;2023-07-13T04:31:15;17.70;78.50
10386;DHT22;34307;51.332;12.334;2023-07-13T04:33:43;17.70;78.10
10386;DHT22;34307;51.332;12.334;2023-07-13T04:36:14;17.80;78.00
10386;DHT22;34307;51.332;12.334;2023-07-13T04:38:43;17.80;77.60
10386;DHT22;34307;51.332;12.334;2023-07-13T04:41:15;17.80;77.70
10386;DHT22;34307;51.332;12.334;2023-07-13T04:43:43;17.90;76.90
10386;DHT22;34307;51.332;12.334;2023-07-13T04:46:16;17.90;77.10
10386;DHT22;34307;51.332;12.334;2023-07-13T04:48:45;18.10;76.20
10386;DHT22;34307;51.332;12.334;2023-07-13T04:51:13;18.00;76.30
10386;DHT22;34307;51.332;12.334;2023-07-13T04:53:42;18.10;75.90
10386;DHT22;34307;51.332;12.334;2023-07-13T04:56:10;18.10;75.80
10386;DHT22;34307;51.332;12.334;2023-07-13T04:58:39;18.10;76.10
10386;DHT22;34307;51.332;12.334;2023-07-13T05:01:09;18.10;76.20
10386;DHT22;34307;51.332;12.334;2023-07-13T05:03:40;18.10;76.50
10386;DHT22;34307;51.332;12.334;2023-07-13T05:06:11;18.10;75.90
10386;DHT22;34307;51.332;12.334;2023-07-13T05:08:40;18.20;75.30
10386;DHT22;34307;51.332;12.334;2023-07-13T05:11:08;18.30;75.30
10386;DHT22;34307;51.332;12.334;2023-07-13T05:13:37;18.30;75.40
10386;DHT22;34307;51.332;12.334;2023-07-13T05:16:05;18.30;75.10
10386;DHT22;34307;51.332;12.334;2023-07-13T05:18:36;18.40;74.30
10386;DHT22;34307;51.332;12.334;2023-07-13T05:21:12;18.60;73.40
10386;DHT22;34307;51.332;12.334;2023-07-13T05:23:42;18.60;72.30
10386;DHT22;34307;51.332;12.334;2023-07-13T05:26:11;18.80;70.70
10386;DHT22;34307;51.332;12.334;2023-07-13T05:28:39;19.00;68.30
10386;DHT22;34307;51.332;12.334;2023-07-13T05:31:09;19.10;66.90
10386;DHT22;34307;51.332;12.334;2023-07-13T05:33:39;19.20;64.80
10386;DHT22;34307;51.332;12.334;2023-07-13T05:36:07;19.40;62.70
10386;DHT22;34307;51.332;12.334;2023-07-13T05:38:38;19.40;60.40
10386;DHT22;34307;51.332;12.334;2023-07-13T05:41:08;19.50;60.90
10386;DHT22;34307;51.332;12.334;2023-07-13T05:43:37;19.60;60.00
10386;DHT22;34307;51.332;12.334;2023-07-13T05:46:05;19.60;58.80
10386;DHT22;34307;51.332;12.334;2023-07-13T05:48:33;19.60;57.80
10386;DHT22;34307;51.332;12.334;2023-07-13T05:51:01;19.70;58.00
10386;DHT22;34307;51.332;12.334;2023-07-13T05:53:30;19.80;58.30
10386;DHT22;34307;51.332;12.334;2023-07-13T05:56:01;19.80;56.90
10386;DHT22;34307;51.332;12.334;2023-07-13T05:58:29;20.00;55.00
10386;DHT22;34307;51.332;12.334;2023-07-13T06:01:01;20.10;54.50
10386;DHT22;34307;51.332;12.334;2023-07-13T06:03:30;20.40;53.40
10386;DHT22;34307;51.332;12.334;2023-07-13T06:05:58;20.50;52.10
10386;DHT22;34307;51.332;12.334;2023-07-13T06:08:28;20.60;52.00
10386;DHT22;34307;51.332;12.334;2023-07-13T06:11:03;20.60;51.80
10386;DHT22;34307;51.332;12.334;2023-07-13T06:13:32;20.60;51.30
10386;DHT22;34307;51.332;12.334;2023-07-13T06:16:00;20.50;50.90
10386;DHT22;34307;51.332;12.334;2023-07-13T06:18:31;20.60;51.00
10386;DHT22;34307;51.332;12.334;2023-07-13T06:21:07;20.60;51.40
10386;DHT22;34307;51.332;12.334;2023-07-13T06:23:37;20.70;50.60
10386;DHT22;34307;51.332;12.334;2023-07-13T06:26:09;20.60;50.50
10386;DHT22;34307;51.332;12.334;2023-07-13T06:28:38;20.70;51.40
10386;DHT22;34307;51.332;12.334;2023-07-13T06:31:08;20.70;51.10
10386;DHT22;34307;51.332;12.334;2023-07-13T06:33:38;20.80;51.00
10386;DHT22;34307;51.332;12.334;2023-07-13T06:36:06;20.90;50.80
10386;DHT22;34307;51.332;12.334;2023-07-13T06:38:36;21.00;48.60
10386;DHT22;34307;51.332;12.334;2023-07-13T06:41:05;21.00;47.80
10386;DHT22;34307;51.332;12.334;2023-07-13T06:43:34;21.10;47.00
10386;DHT22;34307;51.332;12.334;2023-07-13T06:46:03;21.10;46.70
10386;DHT22;34307;51.332;12.334;2023-07-13T06:48:33;21.10;46.50
10386;DHT22;34307;51.332;12.334;2023-07-13T06:51:03;21.30;46.00
10386;DHT22;34307;51.332;12.334;2023-07-13T06:53:31;21.30;45.60
10386;DHT22;34307;51.332;12.334;2023-07-13T06:55:59;21.50;45.50
10386;DHT22;34307;51.332;12.334;2023-07-13T06:58:27;21.60;45.00
10386;DHT22;34307;51.332;12.334;2023-07-13T07:00:57;21.50;43.60
10386;DHT22;34307;51.332;12.334;2023-07-13T07:03:25;21.50;42.50
10386;DHT22;34307;51.332;12.334;2023-07-13T07:06:00;21.60;43.30
10386;DHT22;34307;51.332;12.334;2023-07-13T07:08:30;21.80;41.00
10386;DHT22;34307;51.332;12.334;2023-07-13T07:10:58;21.60;40.40
10386;DHT22;34307;51.332;12.334;2023-07-13T07:13:27;21.60;38.00
10386;DHT22;34307;51.332;12.334;2023-07-13T07:15:57;21.40;37.00
10386;DHT22;34307;51.332;12.334;2023-07-13T07:18:26;21.30;38.40
10386;DHT22;34307;51.332;12.334;2023-07-13T07:20:54;21.40;39.00
10386;DHT22;34307;51.332;12.334;2023-07-13T07:23:23;21.30;40.00
10386;DHT22;34307;51.332;12.334;2023-07-13T07:25:52;21.40;39.70
10386;DHT22;34307;51.332;12.334;2023-07-13T07:28:23;21.50;39.00
10386;DHT22;34307;51.332;12.334;2023-07-13T07:31:10;21.60;37.90
10386;DHT22;34307;51.332;12.334;2023-07-13T07:33:41;21.80;35.60
10386;DHT22;34307;51.332;12.334;2023-07-13T07:36:10;21.90;36.70
10386;DHT22;34307;51.332;12.334;2023-07-13T07:38:41;22.10;34.30
10386;DHT22;34307;51.332;12.334;2023-07-13T07:41:12;22.30;31.00
10386;DHT22;34307;51.332;12.334;2023-07-13T07:43:44;22.50;29.20
10386;DHT22;34307;51.332;12.334;2023-07-13T07:46:15;22.60;24.20
10386;DHT22;34307;51.332;12.334;2023-07-13T07:48:43;22.20;22.70
10386;DHT22;34307;51.332;12.334;2023-07-13T07:51:16;22.20;23.10
10386;DHT22;34307;51.332;12.334;2023-07-13T07:53:45;22.10;21.60
10386;DHT22;34307;51.332;12.334;2023-07-13T07:56:14;22.20;20.50
10386;DHT22;34307;51.332;12.334;2023-07-13T07:58:48;22.00;19.80
10386;DHT22;34307;51.332;12.334;2023-07-13T08:01:23;21.80;21.00
10386;DHT22;34307;51.332;12.334;2023-07-13T08:03:54;21.90;21.50
10386;DHT22;34307;51.332;12.334;2023-07-13T08:06:25;22.10;21.20
10386;DHT22;34307;51.332;12.334;2023-07-13T08:08:56;22.30;21.50
10386;DHT22;34307;51.332;12.334;2023-07-13T08:11:25;22.90;19.40
10386;DHT22;34307;51.332;12.334;2023-07-13T08:13:58;23.50;17.50
10386;DHT22;34307;51.332;12.334;2023-07-13T08:16:28;23.90;15.90
10386;DHT22;34307;51.332;12.334;2023-07-13T08:18:57;24.10;14.80
10386;DHT22;34307;51.332;12.334;2023-07-13T08:21:25;24.40;12.10
10386;DHT22;34307;51.332;12.334;2023-07-13T08:23:53;24.20;12.20
10386;DHT22;34307;51.332;12.334;2023-07-13T08:26:21;24.20;11.20
10386;DHT22;34307;51.332;12.334;2023-07-13T08:28:49;24.10;10.90
10386;DHT22;34307;51.332;12.334;2023-07-13T08:31:18;23.40;11.90
10386;DHT22;34307;51.332;12.334;2023-07-13T08:33:51;23.20;12.60
10386;DHT22;34307;51.332;12.334;2023-07-13T08:36:18;23.10;13.30
10386;DHT22;34307;51.332;12.334;2023-07-13T08:38:46;23.50;13.00
10386;DHT22;34307;51.332;12.334;2023-07-13T08:41:16;23.70;11.00
10386;DHT22;34307;51.332;12.334;2023-07-13T08:43:52;23.90;11.30
10386;DHT22;34307;51.332;12.334;2023-07-13T08:46:25;23.70;8.60
10386;DHT22;34307;51.332;12.334;2023-07-13T08:48:58;23.10;8.60
10386;DHT22;34307;51.332;12.334;2023-07-13T08:51:38;22.80;8.70
10386;DHT22;34307;51.332;12.334;2023-07-13T08:54:16;22.70;8.60
10386;DHT22;34307;51.332;12.334;2023-07-13T08:56:49;23.30;8.80
10386;DHT22;34307;51.332;12.334;2023-07-13T08:59:22;23.70;7.60
10386;DHT22;34307;51.332;12.334;2023-07-13T09:02:15;24.50;5.00
10386;DHT22;34307;51.332;12.334;2023-07-13T09:04:49;24.90;1.70
10386;DHT22;34307;51.332;12.334;2023-07-13T09:07:27;25.00;1.00
10386;DHT22;34307;51.332;12.334;2023-07-13T09:10:10;25.00;1.00
10386;DHT22;34307;51.332;12.334;2023-07-13T09:12:47;24.70;1.00
10386;DHT22;34307;51.332;12.334;2023-07-13T09:15:25;24.50;1.00
10386;DHT22;34307;51.332;12.334;2023-07-13T09:17:56;24.80;1.00
10386;DHT22;34307;51.332;12.334;2023-07-13T09:20:31;25.20;1.00
10386;DHT22;34307;51.332;12.334;2023-07-13T09:23:10;24.90;1.00
10386;DHT22;34307;51.332;12.334;2023-07-13T09:25:41;25.10;1.00
10386;DHT22;34307;51.332;12.334;2023-07-13T09:28:17;24.80;1.00
10386;DHT22;34307;51.332;12.334;2023-07-13T09:30:51;24.70;1.00
10386;DHT22;34307;51.332;12.334;2023-07-13T09:33:21;25.10;1.00
10386;DHT22;34307;51.332;12.334;2023-07-13T09:35:51;25.30;1.00
10386;DHT22;34307;51.332;12.334;2023-07-13T09:38:23;25.70;1.00
10386;DHT22;34307;51.332;12.334;2023-07-13T09:40:59;25.00;1.00
10386;DHT22;34307;51.332;12.334;2023-07-13T09:43:29;25.00;1.00
10386;DHT22;34307;51.332;12.334;2023-07-13T09:45:57;25.00;1.00
10386;DHT22;34307;51.332;12.334;2023-07-13T09:48:34;25.00;1.00
10386;DHT22;34307;51.332;12.334;2023-07-13T09:51:13;24.70;1.00
10386;DHT22;34307;51.332;12.334;2023-07-13T09:53:42;24.70;1.00
10386;DHT22;34307;51.332;12.334;2023-07-13T09:56:22;24.80;1.00
10386;DHT22;34307;51.332;12.334;2023-07-13T09:58:51;24.80;1.00
10386;DHT22;34307;51.332;12.334;2023-07-13T10:01:32;24.60;1.00
10386;DHT22;34307;51.332;12.334;2023-07-13T10:04:00;24.50;1.00
10386;DHT22;34307;51.332;12.334;2023-07-13T10:06:30;24.90;1.00
10386;DHT22;34307;51.332;12.334;2023-07-13T10:08:57;25.10;1.00
10386;DHT22;34307;51.332;12.334;2023-07-13T10:11:28;25.60;1.00
10386;DHT22;34307;51.332;12.334;2023-07-13T10:13:57;25.80;1.00
10386;DHT22;34307;51.332;12.334;2023-07-13T10:16:30;26.20;1.00
10386;DHT22;34307;51.332;12.334;2023-07-13T10:19:06;26.30;1.00
10386;DHT22;34307;51.332;12.334;2023-07-13T10:21:45;26.70;1.00
10386;DHT22;34307;51.332;12.334;2023-07-13T10:24:18;25.80;1.00
10386;DHT22;34307;51.332;12.334;2023-07-13T10:26:52;25.60;1.00
10386;DHT22;34307;51.332;12.334;2023-07-13T10:29:24;25.30;1.00
10386;DHT22;34307;51.332;12.334;2023-07-13T10:31:54;24.80;1.00
10386;DHT22;34307;51.332;12.334;2023-07-13T10:34:24;24.00;1.00
10386;DHT22;34307;51.332;12.334;2023-07-13T10:36:55;24.00;1.00
10386;DHT22;34307;51.332;12.334;2023-07-13T10:39:26;24.40;1.00
10386;DHT22;34307;51.332;12.334;2023-07-13T10:41:59;24.50;1.00
10386;DHT22;34307;51.332;12.334;2023-07-13T10:44:31;25.30;1.00
10386;DHT22;34307;51.332;12.334;2023-07-13T10:47:01;25.50;1.00
10386;DHT22;34307;51.332;12.334;2023-07-13T10:49:32;25.60;1.00
10386;DHT22;34307;51.332;12.334;2023-07-13T10:52:04;25.80;1.00
10386;DHT22;34307;51.332;12.334;2023-07-13T10:54:34;25.20;1.00
10386;DHT22;34307;51.332;12.334;2023-07-13T10:57:16;24.90;1.00
10386;DHT22;34307;51.332;12.334;2023-07-13T10:59:49;25.00;1.00
10386;DHT22;34307;51.332;12.334;2023-07-13T11:02:38;25.00;1.00
10386;DHT22;34307;51.332;12.334;2023-07-13T11:05:22;25.30;1.00
10386;DHT22;34307;51.332;12.334;2023-07-13T11:08:04;25.10;1.00
10386;DHT22;34307;51.332;12.334;2023-07-13T11:10:48;25.80;1.00
10386;DHT22;34307;51.332;12.334;2023-07-13T11:13:55;25.10;1.00
10386;DHT22;34307;51.332;12.334;2023-07-13T11:16:36;25.60;1.00
10386;DHT22;34307;51.332;12.334;2023-07-13T11:19:27;26.50;1.00
10386;DHT22;34307;51.332;12.334;2023-07-13T11:22:03;26.30;1.00
10386;DHT22;34307;51.332;12.334;2023-07-13T11:27:41;25.70;1.00
10386;DHT22;34307;51.332;12.334;2023-07-13T11:30:25;25.40;1.00
10386;DHT22;34307;51.332;12.334;2023-07-13T11:33:11;26.00;1.00
10386;DHT22;34307;51.332;12.334;2023-07-13T11:35:45;26.60;1.00
10386;DHT22;34307;51.332;12.334;2023-07-13T11:38:16;26.60;1.00
10386;DHT22;34307;51.332;12.334;2023-07-13T11:40:48;25.80;1.00
10386;DHT22;34307;51.332;12.334;2023-07-13T11:43:22;25.80;1.00
10386;DHT22;34307;51.332;12.334;2023-07-13T11:45:51;26.10;1.00
10386;DHT22;34307;51.332;12.334;2023-07-13T11:48:21;26.30;1.00
10386;DHT22;34307;51.332;12.334;2023-07-13T11:50:54;26.30;1.00
10386;DHT22;34307;51.332;12.334;2023-07-13T11:53:27;26.10;1.00
10386;DHT22;34307;51.332;12.334;2023-07-13T11:55:57;26.00;1.00
10386;DHT22;34307;51.332;12.334;2023-07-13T11:58:27;25.90;1.00
10386;DHT22;34307;51.332;12.334;2023-07-13T12:00:58;26.50;1.00
10386;DHT22;34307;51.332;12.334;2023-07-13T12:03:33;25.80;1.00
10386;DHT22;34307;51.332;12.334;2023-07-13T12:06:05;25.80;1.00
10386;DHT22;34307;51.332;12.334;2023-07-13T12:08:38;25.90;1.00
10386;DHT22;34307;51.332;12.334;2023-07-13T12:11:16;25.90;1.00
10386;DHT22;34307;51.332;12.334;2023-07-13T12:13:45;26.40;1.00
10386;DHT22;34307;51.332;12.334;2023-07-13T12:16:15;26.30;1.00
10386;DHT22;34307;51.332;12.334;2023-07-13T12:18:44;26.40;1.00
10386;DHT22;34307;51.332;12.334;2023-07-13T12:21:18;27.00;1.00
10386;DHT22;34307;51.332;12.334;2023-07-13T12:23:48;27.90;1.00
10386;DHT22;34307;51.332;12.334;2023-07-13T12:26:19;27.30;1.00
10386;DHT22;34307;51.332;12.334;2023-07-13T12:28:51;27.10;1.00
10386;DHT22;34307;51.332;12.334;2023-07-13T12:31:31;27.40;1.00
10386;DHT22;34307;51.332;12.334;2023-07-13T12:34:01;27.30;1.00
10386;DHT22;34307;51.332;12.334;2023-07-13T12:36:32;26.20;1.00
10386;DHT22;34307;51.332;12.334;2023-07-13T12:39:09;26.10;1.00
10386;DHT22;34307;51.332;12.334;2023-07-13T12:41:41;26.00;1.00
10386;DHT22;34307;51.332;12.334;2023-07-13T12:44:12;26.50;1.00
10386;DHT22;34307;51.332;12.334;2023-07-13T12:46:55;26.70;1.00
10386;DHT22;34307;51.332;12.334;2023-07-13T12:49:29;26.80;1.00
10386;DHT22;34307;51.332;12.334;2023-07-13T12:52:00;27.10;1.00
10386;DHT22;34307;51.332;12.334;2023-07-13T12:54:30;27.70;1.00
10386;DHT22;34307;51.332;12.334;2023-07-13T12:56:59;28.10;1.00
10386;DHT22;34307;51.332;12.334;2023-07-13T12:59:31;27.20;1.00
10386;DHT22;34307;51.332;12.334;2023-07-13T13:02:22;27.50;1.00
10386;DHT22;34307;51.332;12.334;2023-07-13T13:04:51;27.00;1.00
10386;DHT22;34307;51.332;12.334;2023-07-13T13:07:19;27.00;1.00
10386;DHT22;34307;51.332;12.334;2023-07-13T13:09:47;26.80;1.00
10386;DHT22;34307;51.332;12.334;2023-07-13T13:12:17;27.70;1.00
10386;DHT22;34307;51.332;12.334;2023-07-13T13:14:47;28.60;1.00
10386;DHT22;34307;51.332;12.334;2023-07-13T13:17:19;28.80;1.00
10386;DHT22;34307;51.332;12.334;2023-07-13T13:19:48;28.90;1.00
10386;DHT22;34307;51.332;12.334;2023-07-13T13:22:17;28.90;1.00
10386;DHT22;34307;51.332;12.334;2023-07-13T13:24:46;28.70;1.00
10386;DHT22;34307;51.332;12.334;2023-07-13T13:27:18;28.90;1.00
10386;DHT22;34307;51.332;12.334;2023-07-13T13:29:50;27.50;1.00
10386;DHT22;34307;51.332;12.334;2023-07-13T13:32:20;27.30;1.00
10386;DHT22;34307;51.332;12.334;2023-07-13T13:34:48;27.30;1.00
10386;DHT22;34307;51.332;12.334;2023-07-13T13:37:21;26.40;1.00
10386;DHT22;34307;51.332;12.334;2023-07-13T13:39:50;26.20;1.00
10386;DHT22;34307;51.332;12.334;2023-07-13T13:42:35;26.50;1.00
10386;DHT22;34307;51.332;12.334;2023-07-13T13:45:04;26.30;1.00
10386;DHT22;34307;51.332;12.334;2023-07-13T13:47:33;26.70;1.00
10386;DHT22;34307;51.332;12.334;2023-07-13T13:50:11;27.50;1.00
10386;DHT22;34307;51.332;12.334;2023-07-13T13:52:41;27.30;1.00
10386;DHT22;34307;51.332;12.334;2023-07-13T13:55:13;27.90;1.00
10386;DHT22;34307;51.332;12.334;2023-07-13T13:57:43;27.70;1.00
10386;DHT22;34307;51.332;12.334;2023-07-13T14:00:12;28.70;1.00
10386;DHT22;34307;51.332;12.334;2023-07-13T14:02:44;29.30;1.00
10386;DHT22;34307;51.332;12.334;2023-07-13T14:05:16;29.10;1.00
10386;DHT22;34307;51.332;12.334;2023-07-13T14:07:46;29.40;1.00
10386;DHT22;34307;51.332;12.334;2023-07-13T14:10:15;28.20;1.00
10386;DHT22;34307;51.332;12.334;2023-07-13T14:12:48;27.00;1.00
10386;DHT22;34307;51.332;12.334;2023-07-13T14:15:20;26.80;1.00
10386;DHT22;34307;51.332;12.334;2023-07-13T14:17:48;26.40;1.00
10386;DHT22;34307;51.332;12.334;2023-07-13T14:20:21;26.80;1.00
10386;DHT22;34307;51.332;12.334;2023-07-13T14:22:51;26.90;1.00
10386;DHT22;34307;51.332;12.334;2023-07-13T14:25:20;26.60;1.00
10386;DHT22;34307;51.332;12.334;2023-07-13T14:27:53;27.10;1.00
10386;DHT22;34307;51.332;12.334;2023-07-13T14:30:24;27.00;1.00
10386;DHT22;34307;51.332;12.334;2023-07-13T14:32:53;26.50;1.00
10386;DHT22;34307;51.332;12.334;2023-07-13T14:35:22;26.00;1.00
10386;DHT22;34307;51.332;12.334;2023-07-13T14:37:51;26.40;1.00
10386;DHT22;34307;51.332;12.334;2023-07-13T14:40:24;26.20;1.00
10386;DHT22;34307;51.332;12.334;2023-07-13T14:42:55;26.50;1.00
10386;DHT22;34307;51.332;12.334;2023-07-13T14:45:23;26.40;1.00
10386;DHT22;34307;51.332;12.334;2023-07-13T14:47:52;26.40;1.00
10386;DHT22;34307;51.332;12.334;2023-07-13T14:50:23;26.70;1.00
10386;DHT22;34307;51.332;12.334;2023-07-13T14:52:53;26.40;1.00
10386;DHT22;34307;51.332;12.334;2023-07-13T14:55:21;27.60;1.00
10386;DHT22;34307;51.332;12.334;2023-07-13T14:57:50;28.70;1.00
10386;DHT22;34307;51.332;12.334;2023-07-13T15:00:21;29.80;1.00
10386;DHT22;34307;51.332;12.334;2023-07-13T15:02:51;29.40;1.00
10386;DHT22;34307;51.332;12.334;2023-07-13T15:05:23;29.20;1.00
10386;DHT22;34307;51.332;12.334;2023-07-13T15:07:52;28.10;1.00
10386;DHT22;34307;51.332;12.334;2023-07-13T15:10:22;26.80;1.00
10386;DHT22;34307;51.332;12.334;2023-07-13T15:12:51;26.30;1.00
10386;DHT22;34307;51.332;12.334;2023-07-13T15:15:22;26.20;1.00
10386;DHT22;34307;51.332;12.334;2023-07-13T15:17:50;26.30;1.00
10386;DHT22;34307;51.332;12.334;2023-07-13T15:20:24;26.80;1.00
10386;DHT22;34307;51.332;12.334;2023-07-13T15:22:53;27.50;1.00
10386;DHT22;34307;51.332;12.334;2023-07-13T15:25:25;27.50;1.00
10386;DHT22;34307;51.332;12.334;2023-07-13T15:27:53;27.40;1.00
10386;DHT22;34307;51.332;12.334;2023-07-13T15:30:31;27.30;1.00
10386;DHT22;34307;51.332;12.334;2023-07-13T15:33:08;27.00;1.00
10386;DHT22;34307;51.332;12.334;2023-07-13T15:35:37;27.20;1.00
10386;DHT22;34307;51.332;12.334;2023-07-13T15:38:13;28.00;1.00
10386;DHT22;34307;51.332;12.334;2023-07-13T15:40:47;27.40;1.00
10386;DHT22;34307;51.332;12.334;2023-07-13T15:43:17;27.60;1.00
10386;DHT22;34307;51.332;12.334;2023-07-13T15:45:47;28.10;1.00
10386;DHT22;34307;51.332;12.334;2023-07-13T15:48:20;28.40;1.00
10386;DHT22;34307;51.332;12.334;2023-07-13T15:50:50;27.50;1.00
10386;DHT22;34307;51.332;12.334;2023-07-13T15:53:19;27.30;1.00
10386;DHT22;34307;51.332;12.334;2023-07-13T15:55:48;27.10;1.00